CheckWX is a tool to help pilots better visualize weather data.  It is not intended as a substitute for an official pre-flight weather briefing.

12:42:07 UTC

KJCT TAF
Kimble County Airport
Junction, Texas, USA
KJCT 261135Z 2612/2712 10005KT P6SM FEW250 FM261800 11010KT P6SM FEW250

Mar-26@
12:00 UTC

Mar-26 @ 12:00 UTC

Mar-26@
18:00 UTC

Mar-26 @ 18:00 UTC

KJCT 261135Z 2612/2712 10005KT P6SM FEW250
Wind
  • 100° at 5 KTS
Cloud Levels
  • Few at 25,000' AGL

Mar-26@
18:00 UTC

Mar-26 @ 18:00 UTC

Mar-27@
12:00 UTC

Mar-27 @ 12:00 UTC

FM261800 11010KT P6SM FEW250

From

From Standard forecast or significant change

Wind
  • 110° at 10 KTS
Cloud Levels
  • Few at 25,000' AGL